createdAt,value
2022-11-05T00:02:26.631Z,16.00
2022-11-05T00:05:18.053Z,15.90
2022-11-05T00:08:14.207Z,15.80
2022-11-05T00:10:45.154Z,15.80
2022-11-05T00:13:39.810Z,15.80
2022-11-05T00:16:32.571Z,15.70
2022-11-05T00:19:13.257Z,15.80
2022-11-05T00:22:02.854Z,15.80
2022-11-05T00:24:50.551Z,15.80
2022-11-05T00:27:18.427Z,15.80
2022-11-05T00:32:31.712Z,15.60
2022-11-05T00:35:03.959Z,15.70
2022-11-05T00:37:35.905Z,15.70
2022-11-05T00:40:09.930Z,15.80
2022-11-05T00:43:01.761Z,15.70
2022-11-05T00:45:33.557Z,15.60
2022-11-05T00:48:23.678Z,15.70
2022-11-05T00:50:54.280Z,15.60
2022-11-05T00:53:26.264Z,15.60
2022-11-05T00:55:56.767Z,15.60
2022-11-05T00:58:27.841Z,15.60
2022-11-05T01:00:57.481Z,15.60
2022-11-05T01:03:30.714Z,15.60
2022-11-05T01:06:13.810Z,15.60
2022-11-05T01:08:45.971Z,15.70
2022-11-05T01:11:37.005Z,15.70
2022-11-05T01:14:13.350Z,15.70
2022-11-05T01:16:47.880Z,15.70
2022-11-05T01:19:20.487Z,15.70
2022-11-05T01:21:50.580Z,15.70
2022-11-05T01:24:22.649Z,15.70
2022-11-05T01:26:50.152Z,15.70
2022-11-05T01:29:21.132Z,15.70
2022-11-05T01:31:50.203Z,15.70
2022-11-05T01:34:20.702Z,15.70
2022-11-05T01:36:50.603Z,15.60
2022-11-05T01:39:20.487Z,15.60
2022-11-05T01:41:49.339Z,15.60
2022-11-05T01:44:54.955Z,15.50
2022-11-05T01:48:01.965Z,15.60
2022-11-05T01:50:47.789Z,15.40
2022-11-05T01:53:37.146Z,15.20
2022-11-05T01:56:46.854Z,15.20
2022-11-05T01:59:44.237Z,15.10
2022-11-05T02:02:13.483Z,15.00
2022-11-05T02:04:50.190Z,14.80
2022-11-05T02:07:24.861Z,14.70
2022-11-05T02:10:23.063Z,14.70
2022-11-05T02:12:52.280Z,14.70
2022-11-05T02:15:57.509Z,14.60
2022-11-05T02:18:44.113Z,14.60
2022-11-05T02:21:32.613Z,14.50
2022-11-05T02:24:41.419Z,14.60
2022-11-05T02:27:48.738Z,14.60
2022-11-05T02:30:53.086Z,14.60
2022-11-05T02:33:28.909Z,14.60
2022-11-05T02:36:22.094Z,14.40
2022-11-05T02:39:04.529Z,14.30
2022-11-05T02:42:05.899Z,14.30
2022-11-05T02:44:50.462Z,14.20
2022-11-05T02:47:48.428Z,14.30
2022-11-05T02:50:53.831Z,14.30
2022-11-05T02:53:42.302Z,14.30
2022-11-05T02:56:35.433Z,14.10
2022-11-05T02:59:03.932Z,14.20
2022-11-05T03:01:36.562Z,14.20
2022-11-05T03:04:13.427Z,14.20
2022-11-05T03:07:17.409Z,14.10
2022-11-05T03:10:26.454Z,14.10
2022-11-05T03:13:15.749Z,14.00
2022-11-05T03:16:31.066Z,14.10
2022-11-05T03:19:19.409Z,14.10
2022-11-05T03:21:53.774Z,14.20
2022-11-05T03:24:32.442Z,14.20
2022-11-05T03:27:30.238Z,14.20
2022-11-05T03:30:06.398Z,14.10
2022-11-05T03:32:42.007Z,14.10
2022-11-05T03:35:28.814Z,14.20
2022-11-05T03:38:02.175Z,14.20
2022-11-05T03:40:36.964Z,14.10
2022-11-05T03:43:10.613Z,14.10
2022-11-05T03:45:46.683Z,14.10
2022-11-05T03:48:19.168Z,14.10
2022-11-05T03:50:56.073Z,14.10
2022-11-05T03:53:33.264Z,14.20
2022-11-05T03:56:15.629Z,14.20
2022-11-05T03:58:49.066Z,14.20
2022-11-05T04:01:20.173Z,14.10
2022-11-05T04:03:48.566Z,14.10
2022-11-05T04:06:38.141Z,14.00
2022-11-05T04:09:28.101Z,14.00
2022-11-05T04:12:16.943Z,14.00
2022-11-05T04:14:47.690Z,14.00
2022-11-05T04:17:16.805Z,13.90
2022-11-05T04:20:11.035Z,13.90
2022-11-05T04:23:00.022Z,13.90
2022-11-05T04:25:28.725Z,13.90
2022-11-05T04:28:05.585Z,13.90
2022-11-05T04:30:33.605Z,13.90
2022-11-05T04:33:13.700Z,14.00
2022-11-05T04:35:47.176Z,14.00
2022-11-05T04:38:28.813Z,14.10
2022-11-05T04:41:14.531Z,13.90
2022-11-05T04:43:45.905Z,13.90
2022-11-05T04:46:13.113Z,13.90
2022-11-05T04:48:47.470Z,13.90
2022-11-05T04:51:16.298Z,13.90
2022-11-05T04:53:45.277Z,13.90
2022-11-05T04:56:24.570Z,13.90
2022-11-05T04:58:53.036Z,13.80
2022-11-05T05:01:25.267Z,13.80
2022-11-05T05:03:55.236Z,13.90
2022-11-05T05:06:27.565Z,14.00
2022-11-05T05:08:56.466Z,14.00
2022-11-05T05:11:28.503Z,14.10
2022-11-05T05:14:00.298Z,14.10
2022-11-05T05:16:28.746Z,14.20
2022-11-05T05:18:57.519Z,14.20
2022-11-05T05:21:43.783Z,14.30
2022-11-05T05:24:20.110Z,14.40
2022-11-05T05:26:52.119Z,14.40
2022-11-05T05:29:23.039Z,14.50
2022-11-05T05:31:51.394Z,14.50
2022-11-05T05:34:29.888Z,14.50
2022-11-05T05:36:59.994Z,14.50
2022-11-05T05:39:29.676Z,14.50
2022-11-05T05:41:57.771Z,14.50
2022-11-05T05:44:25.326Z,14.50
2022-11-05T05:46:57.943Z,14.50
2022-11-05T05:49:29.643Z,14.40
2022-11-05T05:51:57.557Z,14.40
2022-11-05T05:54:30.889Z,14.40
2022-11-05T05:57:02.806Z,14.40
2022-11-05T05:59:31.667Z,14.40
2022-11-05T06:02:03.941Z,14.40
2022-11-05T06:04:32.641Z,14.50
2022-11-05T06:07:03.028Z,14.50
2022-11-05T06:09:32.459Z,14.50
2022-11-05T06:12:03.086Z,14.50
2022-11-05T06:14:32.719Z,14.50
2022-11-05T06:17:03.327Z,14.50
2022-11-05T06:22:17.482Z,14.50
2022-11-05T06:24:45.660Z,14.50
2022-11-05T06:27:15.440Z,14.60
2022-11-05T06:29:44.503Z,14.60
2022-11-05T06:32:13.626Z,14.60
2022-11-05T06:34:44.122Z,14.60
2022-11-05T06:37:11.966Z,14.60
2022-11-05T06:39:39.480Z,14.70
2022-11-05T06:42:18.253Z,14.70
2022-11-05T06:44:49.092Z,14.80
2022-11-05T06:47:23.318Z,14.70
2022-11-05T06:49:51.563Z,14.70
2022-11-05T06:52:21.221Z,14.70
2022-11-05T06:54:51.106Z,14.70
2022-11-05T06:57:21.166Z,14.80
2022-11-05T06:59:48.782Z,14.80
2022-11-05T07:02:18.593Z,14.80
2022-11-05T07:04:48.867Z,14.80
2022-11-05T07:07:19.582Z,14.80
2022-11-05T07:09:51.810Z,14.80
2022-11-05T07:12:21.248Z,14.90
2022-11-05T07:14:50.965Z,14.90
2022-11-05T07:17:21.301Z,14.90
2022-11-05T07:19:51.178Z,15.00
2022-11-05T07:22:21.914Z,15.00
2022-11-05T07:24:50.799Z,15.00
2022-11-05T07:27:19.879Z,15.00
2022-11-05T07:29:51.379Z,15.00
2022-11-05T07:32:21.082Z,14.90
2022-11-05T07:34:50.605Z,14.90
2022-11-05T07:37:21.380Z,14.90
2022-11-05T07:39:50.945Z,15.00
2022-11-05T07:42:22.670Z,15.10
2022-11-05T07:44:50.654Z,15.10
2022-11-05T07:47:18.833Z,15.10
2022-11-05T07:49:50.973Z,15.20
2022-11-05T07:52:21.742Z,15.20
2022-11-05T07:54:50.988Z,15.20
2022-11-05T07:57:22.151Z,15.20
2022-11-05T07:59:54.455Z,15.20
2022-11-05T08:02:33.560Z,15.30
2022-11-05T08:05:33.672Z,15.20
2022-11-05T08:08:14.400Z,15.20
2022-11-05T08:10:46.243Z,15.20
2022-11-05T08:13:14.827Z,15.20
2022-11-05T08:15:45.771Z,15.20
2022-11-05T08:18:17.470Z,15.20
2022-11-05T08:20:48.915Z,15.20
2022-11-05T08:23:24.601Z,15.20
2022-11-05T08:25:57.149Z,15.10
2022-11-05T08:28:26.610Z,15.10
2022-11-05T08:30:57.507Z,15.10
2022-11-05T08:33:29.029Z,15.10
2022-11-05T08:35:59.226Z,15.00
2022-11-05T08:38:27.780Z,15.00
2022-11-05T08:40:58.224Z,15.00
2022-11-05T08:43:25.705Z,15.10
2022-11-05T08:45:58.522Z,15.20
2022-11-05T08:48:26.675Z,15.30
2022-11-05T08:50:57.445Z,15.30
2022-11-05T08:53:25.997Z,15.30
2022-11-05T08:56:01.112Z,15.40
2022-11-05T08:58:31.808Z,15.40
2022-11-05T09:01:05.207Z,15.30
2022-11-05T09:03:34.853Z,15.30
2022-11-05T09:06:06.234Z,15.30
2022-11-05T09:08:36.407Z,15.30
2022-11-05T09:11:05.863Z,15.10
2022-11-05T09:13:36.127Z,14.90
2022-11-05T09:16:08.082Z,14.80
2022-11-05T09:18:39.698Z,14.90
2022-11-05T09:21:07.884Z,14.90
2022-11-05T09:23:39.063Z,14.80
2022-11-05T09:26:07.854Z,14.80
2022-11-05T09:28:41.670Z,14.60
2022-11-05T09:31:13.711Z,14.60
2022-11-05T09:33:43.007Z,14.60
2022-11-05T09:36:14.143Z,14.60
2022-11-05T09:38:45.168Z,14.50
2022-11-05T09:41:34.317Z,14.50
2022-11-05T09:44:09.511Z,14.50
2022-11-05T09:46:49.821Z,14.40
2022-11-05T09:49:36.424Z,14.40
2022-11-05T09:52:05.490Z,14.40
2022-11-05T09:54:35.349Z,14.40
2022-11-05T09:57:18.516Z,14.40
2022-11-05T09:59:53.659Z,14.40
2022-11-05T10:02:44.347Z,14.40
2022-11-05T10:05:17.506Z,14.50
2022-11-05T10:07:54.132Z,14.60
2022-11-05T10:11:06.625Z,14.60
2022-11-05T10:13:57.810Z,14.50
2022-11-05T10:16:41.873Z,14.50
2022-11-05T10:19:25.159Z,14.50
2022-11-05T10:22:20.985Z,14.30
2022-11-05T10:24:52.402Z,14.00
2022-11-05T10:27:31.609Z,13.90
2022-11-05T10:30:04.378Z,13.80
2022-11-05T10:32:38.865Z,13.70
2022-11-05T10:35:16.307Z,13.60
2022-11-05T10:37:47.067Z,13.50
2022-11-05T10:40:50.341Z,13.30
2022-11-05T10:43:30.342Z,13.00
2022-11-05T10:46:39.005Z,12.80
2022-11-05T10:49:09.517Z,12.80
2022-11-05T10:51:40.842Z,12.70
2022-11-05T10:54:24.255Z,12.70
2022-11-05T10:56:51.772Z,12.60
2022-11-05T10:59:30.165Z,12.60
2022-11-05T11:02:29.827Z,12.50
2022-11-05T11:04:59.042Z,12.40
2022-11-05T11:07:30.424Z,12.30
2022-11-05T11:10:00.681Z,12.20
2022-11-05T11:12:41.526Z,12.10
2022-11-05T11:15:18.324Z,12.10
2022-11-05T11:17:49.923Z,12.00
2022-11-05T11:20:17.909Z,12.00
2022-11-05T11:23:20.677Z,12.00
2022-11-05T11:26:02.343Z,12.00
2022-11-05T11:28:54.300Z,11.90
2022-11-05T11:31:25.046Z,11.90
2022-11-05T11:34:05.722Z,11.80
2022-11-05T11:36:38.569Z,11.90
2022-11-05T11:39:22.654Z,11.90
2022-11-05T11:42:04.683Z,11.80
2022-11-05T11:44:43.111Z,11.80
2022-11-05T11:47:18.283Z,11.80
2022-11-05T11:49:51.899Z,11.80
2022-11-05T11:52:34.698Z,11.90
2022-11-05T11:55:24.044Z,11.90
2022-11-05T11:58:08.034Z,11.80
2022-11-05T12:00:48.597Z,11.70
2022-11-05T12:03:28.261Z,11.60
2022-11-05T12:06:20.333Z,11.60
2022-11-05T12:09:19.739Z,11.60
2022-11-05T12:12:14.805Z,11.60
2022-11-05T12:14:55.308Z,11.60
2022-11-05T12:17:55.121Z,11.60
2022-11-05T12:20:48.639Z,11.60
2022-11-05T12:23:45.061Z,11.50
2022-11-05T12:26:24.224Z,11.50
2022-11-05T12:29:19.444Z,11.50
2022-11-05T12:32:05.997Z,11.50
2022-11-05T12:35:29.087Z,11.50
2022-11-05T12:38:46.076Z,11.60
2022-11-05T12:41:37.116Z,11.70
2022-11-05T12:44:40.333Z,11.60
2022-11-05T12:47:45.223Z,11.60
2022-11-05T12:50:30.049Z,11.50
2022-11-05T12:53:26.189Z,11.40
2022-11-05T12:56:04.503Z,11.50
2022-11-05T12:58:40.870Z,11.60
2022-11-05T13:01:25.194Z,11.70
2022-11-05T13:04:26.716Z,11.60
2022-11-05T13:06:57.302Z,11.50
2022-11-05T13:09:44.369Z,11.60
2022-11-05T13:12:17.967Z,11.60
2022-11-05T13:14:58.706Z,11.50
2022-11-05T13:17:51.943Z,11.60
2022-11-05T13:20:28.735Z,11.60
2022-11-05T13:23:26.732Z,11.50
2022-11-05T13:26:07.527Z,11.60
2022-11-05T13:28:59.662Z,11.70
2022-11-05T13:31:41.960Z,11.80
2022-11-05T13:34:13.961Z,11.80
2022-11-05T13:37:27.376Z,11.80
2022-11-05T13:40:05.665Z,11.60
2022-11-05T13:43:03.849Z,11.50
2022-11-05T13:46:17.478Z,11.40
2022-11-05T13:49:21.526Z,11.30
2022-11-05T13:52:26.961Z,11.20
2022-11-05T13:55:34.638Z,11.00
2022-11-05T13:58:15.608Z,11.00
2022-11-05T14:01:14.168Z,10.90
2022-11-05T14:03:50.826Z,10.90
2022-11-05T14:06:38.386Z,10.90
2022-11-05T14:09:25.280Z,10.80
2022-11-05T14:12:06.920Z,10.80
2022-11-05T14:14:57.453Z,10.90
2022-11-05T14:17:58.482Z,10.90
2022-11-05T14:20:49.422Z,10.90
2022-11-05T14:23:26.094Z,11.00
2022-11-05T14:26:21.685Z,11.10
2022-11-05T14:29:21.730Z,11.10
2022-11-05T14:32:13.329Z,11.00
2022-11-05T14:35:12.350Z,10.90
2022-11-05T14:37:55.774Z,10.80
2022-11-05T14:40:29.114Z,10.90
2022-11-05T14:43:06.173Z,11.00
2022-11-05T14:45:38.747Z,11.00
2022-11-05T14:48:40.408Z,11.00
2022-11-05T14:51:42.116Z,10.90
2022-11-05T14:54:23.252Z,10.80
2022-11-05T14:57:05.514Z,10.80
2022-11-05T14:59:53.377Z,10.90
2022-11-05T15:02:35.210Z,10.90
2022-11-05T15:05:39.697Z,10.80
2022-11-05T15:08:54.478Z,10.80
2022-11-05T15:11:44.419Z,10.80
2022-11-05T15:14:55.994Z,10.80
2022-11-05T15:17:33.455Z,10.80
2022-11-05T15:20:21.749Z,10.80
2022-11-05T15:22:57.547Z,10.80
2022-11-05T15:26:22.500Z,10.80
2022-11-05T15:28:52.891Z,10.80
2022-11-05T15:31:46.769Z,10.80
2022-11-05T15:34:38.634Z,10.90
2022-11-05T15:37:14.844Z,10.90
2022-11-05T15:39:45.788Z,10.90
2022-11-05T15:42:38.016Z,10.90
2022-11-05T15:45:23.031Z,10.90
2022-11-05T15:47:51.157Z,11.00
2022-11-05T15:50:22.811Z,11.00
2022-11-05T15:53:04.860Z,11.00
2022-11-05T15:55:56.380Z,11.10
2022-11-05T15:58:24.243Z,11.00
2022-11-05T16:00:53.473Z,11.00
2022-11-05T16:03:32.626Z,11.00
2022-11-05T16:06:01.022Z,10.90
2022-11-05T16:08:30.566Z,10.90
2022-11-05T16:11:00.844Z,10.90
2022-11-05T16:13:42.354Z,10.90
2022-11-05T16:16:33.658Z,11.00
2022-11-05T16:19:04.714Z,11.00
2022-11-05T16:21:56.420Z,11.00
2022-11-05T16:24:29.474Z,10.90
2022-11-05T16:27:02.973Z,10.90
2022-11-05T16:29:38.829Z,11.00
2022-11-05T16:32:30.556Z,11.00
2022-11-05T16:35:05.647Z,11.00
2022-11-05T16:37:49.190Z,11.00
2022-11-05T16:40:25.853Z,11.10
2022-11-05T16:42:59.111Z,11.00
2022-11-05T16:45:31.143Z,11.00
2022-11-05T16:48:01.403Z,11.10
2022-11-05T16:50:34.671Z,11.10
2022-11-05T16:53:02.173Z,11.10
2022-11-05T16:55:34.433Z,11.20
2022-11-05T16:58:01.927Z,11.20
2022-11-05T17:00:31.439Z,11.20
2022-11-05T17:03:01.710Z,11.20
2022-11-05T17:05:33.461Z,11.20
2022-11-05T17:08:03.067Z,11.20
2022-11-05T17:10:33.694Z,11.20
2022-11-05T17:13:05.524Z,11.20
2022-11-05T17:15:38.471Z,11.10
2022-11-05T17:18:07.929Z,11.10
2022-11-05T17:20:47.242Z,11.00
2022-11-05T17:23:22.823Z,11.10
2022-11-05T17:26:02.611Z,11.00
2022-11-05T17:28:35.436Z,11.00
2022-11-05T17:31:08.121Z,11.00
2022-11-05T17:33:38.833Z,11.00
2022-11-05T17:36:20.009Z,11.10
2022-11-05T17:38:52.261Z,11.10
2022-11-05T17:41:25.591Z,11.10
2022-11-05T17:44:14.108Z,11.10
2022-11-05T17:46:48.740Z,11.10
2022-11-05T17:49:20.426Z,11.10
2022-11-05T17:51:51.022Z,11.10
2022-11-05T17:54:22.550Z,11.10
2022-11-05T17:56:54.217Z,11.10
2022-11-05T17:59:25.280Z,11.00
2022-11-05T18:01:55.983Z,10.90
2022-11-05T18:04:26.562Z,10.90
2022-11-05T18:06:57.754Z,10.90
2022-11-05T18:09:27.731Z,10.90
2022-11-05T18:11:57.387Z,10.90
2022-11-05T18:14:27.882Z,10.90
2022-11-05T18:17:03.168Z,10.80
2022-11-05T18:19:33.813Z,10.80
2022-11-05T18:22:06.779Z,10.80
2022-11-05T18:24:38.632Z,10.90
2022-11-05T18:27:08.996Z,10.90
2022-11-05T18:29:36.500Z,10.90
2022-11-05T18:32:06.618Z,10.90
2022-11-05T18:34:36.002Z,10.80
2022-11-05T18:37:05.778Z,10.80
2022-11-05T18:39:37.898Z,10.80
2022-11-05T18:42:09.293Z,10.80
2022-11-05T18:44:39.748Z,10.80
2022-11-05T18:47:08.331Z,10.80
2022-11-05T18:49:40.701Z,10.90
2022-11-05T18:52:11.952Z,10.90
2022-11-05T18:54:42.587Z,10.90
2022-11-05T18:57:13.588Z,10.90
2022-11-05T18:59:43.224Z,11.00
2022-11-05T19:02:14.349Z,11.00
2022-11-05T19:05:06.615Z,11.00
2022-11-05T19:07:43.407Z,11.10
2022-11-05T19:10:14.671Z,11.20
2022-11-05T19:12:43.581Z,11.20
2022-11-05T19:15:13.299Z,11.30
2022-11-05T19:17:43.370Z,11.30
2022-11-05T19:20:14.443Z,11.30
2022-11-05T19:22:42.278Z,11.30
2022-11-05T19:25:12.063Z,11.30
2022-11-05T19:27:44.118Z,11.40
2022-11-05T19:30:13.716Z,11.40
2022-11-05T19:32:44.881Z,11.40
2022-11-05T19:35:14.483Z,11.40
2022-11-05T19:37:46.703Z,11.30
2022-11-05T19:40:17.878Z,11.30
2022-11-05T19:42:48.467Z,11.30
2022-11-05T19:48:13.572Z,11.20
2022-11-05T19:50:46.523Z,11.20
2022-11-05T19:53:15.780Z,11.20
2022-11-05T19:55:45.585Z,11.10
2022-11-05T19:58:18.429Z,11.20
2022-11-05T20:00:46.369Z,11.20
2022-11-05T20:03:15.992Z,11.20
2022-11-05T20:05:45.480Z,11.20
2022-11-05T20:08:15.108Z,11.20
2022-11-05T20:10:43.615Z,11.10
2022-11-05T20:13:32.312Z,11.20
2022-11-05T20:16:03.386Z,11.20
2022-11-05T20:18:36.115Z,11.20
2022-11-05T20:21:08.979Z,11.20
2022-11-05T20:23:37.794Z,11.20
2022-11-05T20:26:07.633Z,11.20
2022-11-05T20:28:43.178Z,11.20
2022-11-05T20:31:15.306Z,11.20
2022-11-05T20:33:52.931Z,11.20
2022-11-05T20:36:24.007Z,11.20
2022-11-05T20:39:00.527Z,11.20
2022-11-05T20:41:28.804Z,11.10
2022-11-05T20:43:55.855Z,11.10
2022-11-05T20:46:23.805Z,11.00
2022-11-05T20:48:56.264Z,11.00
2022-11-05T20:51:29.390Z,11.00
2022-11-05T20:54:04.575Z,11.00
2022-11-05T20:56:37.624Z,11.00
2022-11-05T20:59:08.286Z,10.90
2022-11-05T21:01:38.036Z,10.90
2022-11-05T21:04:07.664Z,10.90
2022-11-05T21:06:38.886Z,10.90
2022-11-05T21:09:07.127Z,11.00
2022-11-05T21:11:56.831Z,11.00
2022-11-05T21:14:26.630Z,11.00
2022-11-05T21:16:58.922Z,11.10
2022-11-05T21:19:28.813Z,11.10
2022-11-05T21:21:58.997Z,11.10
2022-11-05T21:24:30.573Z,11.10
2022-11-05T21:26:58.755Z,11.10
2022-11-05T21:29:29.261Z,11.10
2022-11-05T21:32:00.944Z,11.10
2022-11-05T21:34:29.439Z,11.00
2022-11-05T21:36:57.980Z,11.00
2022-11-05T21:39:28.184Z,11.00
2022-11-05T21:41:59.014Z,11.00
2022-11-05T21:44:28.794Z,11.00
2022-11-05T21:46:58.495Z,11.00
2022-11-05T21:49:30.047Z,11.00
2022-11-05T21:52:18.906Z,11.10
2022-11-05T21:55:09.933Z,11.00
2022-11-05T21:57:56.854Z,11.10
2022-11-05T22:00:25.864Z,11.20
2022-11-05T22:02:55.447Z,11.20
2022-11-05T22:05:25.076Z,11.20
2022-11-05T22:07:54.848Z,11.20
2022-11-05T22:10:25.912Z,11.20
2022-11-05T22:12:56.096Z,11.20
2022-11-05T22:15:25.465Z,11.20
2022-11-05T22:17:56.076Z,11.20
2022-11-05T22:20:24.977Z,11.20
2022-11-05T22:22:55.520Z,11.20
2022-11-05T22:25:26.169Z,11.20
2022-11-05T22:27:53.894Z,11.20
2022-11-05T22:30:22.470Z,11.20
2022-11-05T22:32:52.480Z,11.10
2022-11-05T22:35:21.889Z,11.10
2022-11-05T22:37:52.635Z,11.00
2022-11-05T22:40:24.169Z,10.90
2022-11-05T22:42:54.345Z,10.90
2022-11-05T22:45:24.529Z,10.90
2022-11-05T22:47:55.249Z,10.90
2022-11-05T22:50:24.821Z,10.90
2022-11-05T22:52:55.085Z,10.90
2022-11-05T22:55:22.710Z,10.90
2022-11-05T22:57:55.280Z,10.90
2022-11-05T23:00:40.007Z,10.90
2022-11-05T23:03:10.636Z,10.90
2022-11-05T23:05:40.852Z,10.90
2022-11-05T23:08:29.909Z,10.80
2022-11-05T23:11:16.936Z,10.80
2022-11-05T23:13:48.849Z,10.80
2022-11-05T23:16:39.038Z,10.80
2022-11-05T23:19:30.936Z,10.80
2022-11-05T23:22:21.011Z,10.80
2022-11-05T23:24:51.200Z,10.80
2022-11-05T23:27:23.343Z,10.80
2022-11-05T23:29:53.139Z,10.70
2022-11-05T23:32:30.726Z,10.70
2022-11-05T23:34:59.587Z,10.70
2022-11-05T23:37:48.960Z,10.70
2022-11-05T23:41:00.959Z,10.70
2022-11-05T23:43:48.974Z,10.70
2022-11-05T23:46:40.035Z,10.70
2022-11-05T23:49:10.701Z,10.80
2022-11-05T23:51:40.161Z,10.70
2022-11-05T23:54:10.239Z,10.80
2022-11-05T23:56:41.483Z,10.90
2022-11-05T23:59:12.313Z,11.00
